createdAt,value
2018-08-10T00:00:26.357Z,5.10
2018-08-10T00:02:54.872Z,4.87
2018-08-10T00:05:23.307Z,10.23
2018-08-10T00:07:51.745Z,6.33
2018-08-10T00:10:20.167Z,4.10
2018-08-10T00:12:48.635Z,9.33
2018-08-10T00:15:17.060Z,6.77
2018-08-10T00:17:45.484Z,6.63
2018-08-10T00:20:15.182Z,5.77
2018-08-10T00:22:44.259Z,6.17
2018-08-10T00:25:14.228Z,8.00
2018-08-10T00:27:42.775Z,10.70
2018-08-10T00:30:14.103Z,7.43
2018-08-10T00:32:44.120Z,7.00
2018-08-10T00:35:12.851Z,7.20
2018-08-10T00:37:42.914Z,6.87
2018-08-10T00:40:20.559Z,7.30
2018-08-10T00:42:49.059Z,8.07
2018-08-10T00:45:18.115Z,12.70
2018-08-10T00:47:47.052Z,10.80
2018-08-10T00:50:16.228Z,6.50
2018-08-10T00:52:45.392Z,12.47
2018-08-10T00:55:15.053Z,7.23
2018-08-10T00:57:43.973Z,7.03
2018-08-10T01:00:14.352Z,13.10
2018-08-10T01:02:42.839Z,9.57
2018-08-10T01:05:11.403Z,8.27
2018-08-10T01:07:39.781Z,10.20
2018-08-10T01:10:11.375Z,9.07
2018-08-10T01:12:40.245Z,10.73
2018-08-10T01:15:12.479Z,11.57
2018-08-10T01:17:41.233Z,14.17
2018-08-10T01:20:13.464Z,11.83
2018-08-10T01:22:44.485Z,9.13
2018-08-10T01:25:13.217Z,10.27
2018-08-10T01:27:46.813Z,11.60
2018-08-10T01:30:15.177Z,9.97
2018-08-10T01:32:43.511Z,15.47
2018-08-10T01:35:11.945Z,13.00
2018-08-10T01:37:40.362Z,11.37
2018-08-10T01:40:09.277Z,9.70
2018-08-10T01:42:37.656Z,8.23
2018-08-10T01:45:06.872Z,9.03
2018-08-10T01:47:35.297Z,10.20
2018-08-10T01:50:03.813Z,8.73
2018-08-10T01:52:32.206Z,10.43
2018-08-10T01:55:00.657Z,13.00
2018-08-10T01:57:29.075Z,11.30
2018-08-10T01:59:57.692Z,12.33
2018-08-10T02:02:26.163Z,11.80
2018-08-10T02:04:54.603Z,8.77
2018-08-10T02:07:23.002Z,8.17
2018-08-10T02:09:51.363Z,9.57
2018-08-10T02:12:19.943Z,11.43
2018-08-10T02:14:48.374Z,10.87
2018-08-10T02:17:16.804Z,8.93
2018-08-10T02:19:45.203Z,9.03
2018-08-10T02:22:13.658Z,10.13
2018-08-10T02:24:42.128Z,9.03
2018-08-10T02:27:10.501Z,9.67
2018-08-10T02:29:38.863Z,9.80
2018-08-10T02:32:07.408Z,9.10
2018-08-10T02:34:36.796Z,13.60
2018-08-10T02:37:05.205Z,11.47
2018-08-10T02:39:33.621Z,11.27
2018-08-10T02:42:02.033Z,12.90
2018-08-10T02:44:30.427Z,10.97
2018-08-10T02:46:59.390Z,8.90
2018-08-10T02:49:27.740Z,10.43
2018-08-10T02:51:56.218Z,8.13
2018-08-10T02:54:24.642Z,16.63
2018-08-10T02:56:53.090Z,12.77
2018-08-10T02:59:22.233Z,13.97
2018-08-10T03:01:50.869Z,12.60
2018-08-10T03:04:19.262Z,12.83
2018-08-10T03:06:47.678Z,12.93
2018-08-10T03:09:16.087Z,13.30
2018-08-10T03:11:44.495Z,11.37
2018-08-10T03:14:13.000Z,18.40
2018-08-10T03:16:41.393Z,13.53
2018-08-10T03:19:09.866Z,12.83
2018-08-10T03:21:38.294Z,10.77
2018-08-10T03:24:06.707Z,13.90
2018-08-10T03:26:35.101Z,10.23
2018-08-10T03:29:03.553Z,13.60
2018-08-10T03:31:32.066Z,11.07
2018-08-10T03:34:01.214Z,11.33
2018-08-10T03:36:29.662Z,9.80
2018-08-10T03:38:58.068Z,13.70
2018-08-10T03:41:26.542Z,12.27
2018-08-10T03:43:54.993Z,13.53
2018-08-10T03:46:23.414Z,10.20
2018-08-10T03:48:51.822Z,13.47
2018-08-10T03:51:20.244Z,15.90
2018-08-10T03:53:48.642Z,14.10
2018-08-10T03:56:17.072Z,12.67
2018-08-10T03:58:45.499Z,16.30
2018-08-10T04:01:13.915Z,13.20
2018-08-10T04:03:42.299Z,12.67
2018-08-10T04:06:10.733Z,15.37
2018-08-10T04:08:39.248Z,16.90
2018-08-10T04:11:07.649Z,11.30
2018-08-10T04:13:36.151Z,12.63
2018-08-10T04:16:04.827Z,16.20
2018-08-10T04:18:34.453Z,12.90
2018-08-10T04:21:03.207Z,12.43
2018-08-10T04:23:32.222Z,18.77
2018-08-10T04:26:00.868Z,13.63
2018-08-10T04:28:29.294Z,12.43
2018-08-10T04:30:57.840Z,18.77
2018-08-10T04:33:26.498Z,17.03
2018-08-10T04:35:54.877Z,19.37
2018-08-10T04:38:23.348Z,15.77
2018-08-10T04:40:51.946Z,15.47
2018-08-10T04:43:20.384Z,15.73
2018-08-10T04:45:48.820Z,19.07
2018-08-10T04:48:17.286Z,16.80
2018-08-10T04:50:45.682Z,16.17
2018-08-10T04:53:14.160Z,16.53
2018-08-10T04:55:42.628Z,14.87
2018-08-10T04:58:11.096Z,18.00
2018-08-10T05:00:39.472Z,19.00
2018-08-10T05:03:08.104Z,13.50
2018-08-10T05:05:36.536Z,17.47
2018-08-10T05:08:04.918Z,15.43
2018-08-10T05:10:33.296Z,14.93
2018-08-10T05:13:01.682Z,16.03
2018-08-10T05:15:30.074Z,13.03
2018-08-10T05:17:58.482Z,15.87
2018-08-10T05:20:26.956Z,13.57
2018-08-10T05:22:55.345Z,16.00
2018-08-10T05:25:23.804Z,15.10
2018-08-10T05:27:52.257Z,13.77
2018-08-10T05:30:20.656Z,16.53
2018-08-10T05:32:51.370Z,16.07
2018-08-10T05:35:19.778Z,16.40
2018-08-10T05:37:48.244Z,14.67
2018-08-10T05:40:16.730Z,14.37
2018-08-10T05:42:45.134Z,11.37
2018-08-10T05:45:13.769Z,18.20
2018-08-10T05:47:42.144Z,12.57
2018-08-10T05:50:10.603Z,16.63
2018-08-10T05:52:39.016Z,13.67
2018-08-10T05:55:07.671Z,10.70
2018-08-10T05:57:36.199Z,13.97
2018-08-10T06:00:05.778Z,14.50
2018-08-10T06:02:34.156Z,13.17
2018-08-10T06:05:02.635Z,10.23
2018-08-10T06:07:31.057Z,10.50
2018-08-10T06:09:59.490Z,12.13
2018-08-10T06:12:27.996Z,11.40
2018-08-10T06:14:57.418Z,8.40
2018-08-10T06:17:25.918Z,10.67
2018-08-10T06:19:54.412Z,11.83
2018-08-10T06:22:22.810Z,13.13
2018-08-10T06:24:51.208Z,9.57
2018-08-10T06:27:19.658Z,10.37
2018-08-10T06:29:48.078Z,11.43
2018-08-10T06:32:17.302Z,10.07
2018-08-10T06:34:45.746Z,11.40
2018-08-10T06:37:14.158Z,8.63
2018-08-10T06:39:42.622Z,8.37
2018-08-10T06:42:12.162Z,10.07
2018-08-10T06:44:40.671Z,15.30
2018-08-10T06:47:09.063Z,8.20
2018-08-10T06:49:38.268Z,8.43
2018-08-10T06:52:06.696Z,8.33
2018-08-10T06:54:35.178Z,9.80
2018-08-10T06:57:03.649Z,10.53
2018-08-10T06:59:32.056Z,5.90
2018-08-10T07:02:00.420Z,8.10
2018-08-10T07:04:28.850Z,10.37
2018-08-10T07:06:57.388Z,11.40
2018-08-10T07:09:25.776Z,9.43
2018-08-10T07:11:54.174Z,9.33
2018-08-10T07:14:22.644Z,10.87
2018-08-10T07:16:51.115Z,15.77
2018-08-10T07:19:20.150Z,12.30
2018-08-10T07:21:48.653Z,9.37
2018-08-10T07:24:17.094Z,15.07
2018-08-10T07:26:45.560Z,7.40
2018-08-10T07:29:14.192Z,11.50
2018-08-10T07:31:42.620Z,8.30
2018-08-10T07:34:11.069Z,9.03
2018-08-10T07:36:39.528Z,8.80
2018-08-10T07:39:09.458Z,9.40
2018-08-10T07:41:37.842Z,8.27
2018-08-10T07:44:06.467Z,6.30
2018-08-10T07:46:35.150Z,7.27
2018-08-10T07:49:04.524Z,7.60
2018-08-10T07:51:32.988Z,7.27
2018-08-10T07:54:01.482Z,9.57
2018-08-10T07:56:29.990Z,9.83
2018-08-10T07:58:58.612Z,10.40
2018-08-10T08:01:27.041Z,9.03
2018-08-10T08:03:56.548Z,11.30
2018-08-10T08:06:25.100Z,6.17
2018-08-10T08:08:53.655Z,9.07
2018-08-10T08:11:22.271Z,5.57
2018-08-10T08:13:50.996Z,10.77
2018-08-10T08:16:19.414Z,12.00
2018-08-10T08:18:47.929Z,8.33
2018-08-10T08:21:16.434Z,5.50
2018-08-10T08:23:44.995Z,10.03
2018-08-10T08:26:13.727Z,6.67
2018-08-10T08:28:42.223Z,9.17
2018-08-10T08:31:10.733Z,8.90
2018-08-10T08:33:50.522Z,8.70
2018-08-10T08:36:19.125Z,9.47
2018-08-10T08:39:03.606Z,7.93
2018-08-10T08:41:32.379Z,11.07
2018-08-10T08:44:41.543Z,10.50
2018-08-10T08:47:10.058Z,6.03
2018-08-10T08:49:38.556Z,11.57
2018-08-10T08:52:08.147Z,6.77
2018-08-10T08:55:22.254Z,5.57
2018-08-10T08:57:50.701Z,9.03
2018-08-10T09:00:19.287Z,4.80
2018-08-10T09:02:47.875Z,7.80
2018-08-10T09:05:16.468Z,4.93
2018-08-10T09:07:45.050Z,4.20
2018-08-10T09:10:15.586Z,3.50
2018-08-10T09:12:44.056Z,5.20
2018-08-10T09:15:14.427Z,4.20
2018-08-10T09:17:43.260Z,7.50
2018-08-10T09:20:12.948Z,6.80
2018-08-10T09:22:41.442Z,5.43
2018-08-10T09:25:11.223Z,6.60
2018-08-10T09:27:40.722Z,6.43
2018-08-10T09:30:12.882Z,6.50
2018-08-10T09:32:41.900Z,5.90
2018-08-10T09:35:11.070Z,5.77
2018-08-10T09:37:40.618Z,4.77
2018-08-10T09:40:11.963Z,4.80
2018-08-10T09:42:40.722Z,4.03
2018-08-10T09:45:10.275Z,7.10
2018-08-10T09:47:38.892Z,2.80
2018-08-10T09:50:08.812Z,2.50
2018-08-10T09:52:37.290Z,3.63
2018-08-10T09:55:25.764Z,4.70
2018-08-10T09:57:56.629Z,3.70
2018-08-10T10:00:30.330Z,3.80
2018-08-10T10:03:04.276Z,3.03
2018-08-10T10:05:32.766Z,9.80
2018-08-10T10:08:01.312Z,5.10
2018-08-10T10:10:29.779Z,4.57
2018-08-10T10:12:58.520Z,5.73
2018-08-10T10:15:27.065Z,7.60
2018-08-10T10:17:55.526Z,5.23
2018-08-10T10:20:24.034Z,3.17
2018-08-10T10:22:52.638Z,4.93
2018-08-10T10:25:21.080Z,4.57
2018-08-10T10:27:50.554Z,3.57
2018-08-10T10:30:19.041Z,3.73
2018-08-10T10:32:47.526Z,3.43
2018-08-10T10:35:15.958Z,6.97
2018-08-10T10:37:44.485Z,1.93
2018-08-10T10:40:13.070Z,5.17
2018-08-10T10:42:41.598Z,3.10
2018-08-10T10:45:11.877Z,5.40
2018-08-10T10:47:40.837Z,2.67
2018-08-10T10:50:10.094Z,2.47
2018-08-10T10:52:38.944Z,4.27
2018-08-10T10:55:07.983Z,2.67
2018-08-10T10:57:36.473Z,4.67
2018-08-10T11:00:07.210Z,4.27
2018-08-10T11:02:35.742Z,3.73
2018-08-10T11:05:04.980Z,1.87
2018-08-10T11:07:34.553Z,2.00
2018-08-10T11:10:03.084Z,11.20
2018-08-10T11:12:32.618Z,3.87
2018-08-10T11:15:01.082Z,2.97
2018-08-10T11:17:29.596Z,4.50
2018-08-10T11:19:58.173Z,2.70
2018-08-10T11:22:26.839Z,4.07
2018-08-10T11:24:55.344Z,3.23
2018-08-10T11:27:23.934Z,3.17
2018-08-10T11:29:52.417Z,6.90
2018-08-10T11:32:20.896Z,3.43
2018-08-10T11:34:49.539Z,5.53
2018-08-10T11:37:18.121Z,2.47
2018-08-10T11:39:46.695Z,2.10
2018-08-10T11:42:15.277Z,4.10
2018-08-10T11:44:43.743Z,1.77
2018-08-10T11:47:12.229Z,3.97
2018-08-10T11:49:40.807Z,2.67
2018-08-10T11:52:09.442Z,2.73
2018-08-10T11:54:37.898Z,4.73
2018-08-10T11:57:06.421Z,3.30
2018-08-10T11:59:34.904Z,5.90
2018-08-10T12:02:03.466Z,2.37
2018-08-10T12:04:31.903Z,3.93
2018-08-10T12:07:00.408Z,5.40
2018-08-10T12:09:28.881Z,2.53
2018-08-10T12:11:58.397Z,2.20
2018-08-10T12:14:26.888Z,2.03
2018-08-10T12:16:55.550Z,2.97
2018-08-10T12:19:24.094Z,4.93
2018-08-10T12:21:52.555Z,3.37
2018-08-10T12:24:21.055Z,3.47
2018-08-10T12:26:49.441Z,2.00
2018-08-10T12:29:17.917Z,2.83
2018-08-10T12:31:46.411Z,2.00
2018-08-10T12:34:14.950Z,2.77
2018-08-10T12:36:43.411Z,2.47
2018-08-10T12:39:13.658Z,4.47
2018-08-10T12:41:42.406Z,2.70
2018-08-10T12:44:11.004Z,2.93
2018-08-10T12:46:39.699Z,2.03
2018-08-10T12:49:08.585Z,2.30
2018-08-10T12:51:37.340Z,3.43
2018-08-10T12:54:05.991Z,2.63
2018-08-10T12:56:34.783Z,4.50
2018-08-10T12:59:03.348Z,1.70
2018-08-10T13:01:31.773Z,2.60
2018-08-10T13:04:00.362Z,5.77
2018-08-10T13:06:29.182Z,2.97
2018-08-10T13:08:57.721Z,2.67
2018-08-10T13:11:26.354Z,4.57
2018-08-10T13:13:54.981Z,1.60
2018-08-10T13:16:23.507Z,2.00
2018-08-10T13:18:52.004Z,3.17
2018-08-10T13:21:20.605Z,4.57
2018-08-10T13:23:49.086Z,1.87
2018-08-10T13:26:17.619Z,3.37
2018-08-10T13:28:47.225Z,6.70
2018-08-10T13:31:15.721Z,2.83
2018-08-10T13:33:44.430Z,5.00
2018-08-10T13:36:12.926Z,3.57
2018-08-10T13:38:41.528Z,3.93
2018-08-10T13:41:09.986Z,4.23
2018-08-10T13:43:38.461Z,2.03
2018-08-10T13:46:07.092Z,5.33
2018-08-10T13:48:35.636Z,3.73
2018-08-10T13:51:05.142Z,2.30
2018-08-10T13:53:33.644Z,2.47
2018-08-10T13:56:02.125Z,6.87
2018-08-10T13:58:30.659Z,3.33
2018-08-10T14:00:59.168Z,3.33
2018-08-10T14:03:27.649Z,4.60
2018-08-10T14:05:56.287Z,1.70
2018-08-10T14:08:24.976Z,1.87
2018-08-10T14:10:53.454Z,3.30
2018-08-10T14:13:22.056Z,2.03
2018-08-10T14:15:52.198Z,3.67
2018-08-10T14:18:20.752Z,2.57
2018-08-10T14:20:49.907Z,3.80
2018-08-10T14:23:18.536Z,5.23
2018-08-10T14:25:46.968Z,2.10
2018-08-10T14:28:15.454Z,5.03
2018-08-10T14:30:43.916Z,3.53
2018-08-10T14:33:12.391Z,3.67
2018-08-10T14:35:40.899Z,3.47
2018-08-10T14:38:09.684Z,3.07
2018-08-10T14:40:38.133Z,3.67
2018-08-10T14:43:06.679Z,2.03
2018-08-10T14:45:35.313Z,4.03
2018-08-10T14:48:04.091Z,4.67
2018-08-10T14:50:32.670Z,2.77
2018-08-10T14:53:01.180Z,4.27
2018-08-10T14:55:29.821Z,5.30
2018-08-10T14:57:58.461Z,5.73
2018-08-10T15:00:27.087Z,7.70
2018-08-10T15:02:55.521Z,1.93
2018-08-10T15:05:23.945Z,4.17
2018-08-10T15:07:52.341Z,2.30
2018-08-10T15:10:21.743Z,2.50
2018-08-10T15:12:50.323Z,4.07
2018-08-10T15:15:19.552Z,4.63
2018-08-10T15:17:48.290Z,3.30
2018-08-10T15:20:19.409Z,2.20
2018-08-10T15:22:47.975Z,4.43
2018-08-10T15:25:16.390Z,4.20
2018-08-10T15:27:44.980Z,3.73
2018-08-10T15:30:15.294Z,3.20
2018-08-10T15:32:43.792Z,4.57
2018-08-10T15:35:13.720Z,2.63
2018-08-10T15:37:42.447Z,2.63
2018-08-10T15:40:13.084Z,2.33
2018-08-10T15:42:41.636Z,2.30
2018-08-10T15:45:11.978Z,2.00
2018-08-10T15:47:40.559Z,3.27
2018-08-10T15:50:09.886Z,5.40
2018-08-10T15:52:39.987Z,3.13
2018-08-10T15:55:09.833Z,3.23
2018-08-10T15:57:38.921Z,3.67
2018-08-10T16:00:11.885Z,1.77
2018-08-10T16:02:40.380Z,3.37
2018-08-10T16:05:09.754Z,2.90
2018-08-10T16:07:38.547Z,2.47
2018-08-10T16:10:07.910Z,4.37
2018-08-10T16:12:37.072Z,3.00
2018-08-10T16:15:07.019Z,2.63
2018-08-10T16:17:35.950Z,1.70
2018-08-10T16:20:05.508Z,1.97
2018-08-10T16:22:34.046Z,3.40
2018-08-10T16:25:02.634Z,2.30
2018-08-10T16:27:31.188Z,8.47
2018-08-10T16:29:59.667Z,2.47
2018-08-10T16:32:28.308Z,2.63
2018-08-10T16:34:56.880Z,2.10
2018-08-10T16:37:25.374Z,3.20
2018-08-10T16:39:53.855Z,3.93
2018-08-10T16:42:22.342Z,4.03
2018-08-10T16:44:50.784Z,2.17
2018-08-10T16:47:19.264Z,3.20
2018-08-10T16:49:47.850Z,3.57
2018-08-10T16:52:16.346Z,2.53
2018-08-10T16:54:45.023Z,2.43
2018-08-10T16:57:13.582Z,2.23
2018-08-10T16:59:42.316Z,2.73
2018-08-10T17:02:11.660Z,4.20
2018-08-10T17:04:40.183Z,2.47
2018-08-10T17:07:08.914Z,3.30
2018-08-10T17:09:37.404Z,1.93
2018-08-10T17:12:05.927Z,3.83
2018-08-10T17:14:34.467Z,2.27
2018-08-10T17:17:03.002Z,2.50
2018-08-10T17:19:31.532Z,1.87
2018-08-10T17:22:00.011Z,3.77
2018-08-10T17:24:28.440Z,3.07
2018-08-10T17:26:56.974Z,1.90
2018-08-10T17:29:25.497Z,2.47
2018-08-10T17:31:54.133Z,1.83
2018-08-10T17:34:22.935Z,1.47
2018-08-10T17:36:52.909Z,2.20
2018-08-10T17:39:21.463Z,4.97
2018-08-10T17:41:50.108Z,1.77
2018-08-10T17:44:19.603Z,2.10
2018-08-10T17:46:48.044Z,5.47
2018-08-10T17:49:16.517Z,4.03
2018-08-10T17:51:45.036Z,2.20
2018-08-10T17:54:13.853Z,2.17
2018-08-10T17:56:42.419Z,3.87
2018-08-10T17:59:11.053Z,3.50
2018-08-10T18:01:39.869Z,4.10
2018-08-10T18:04:08.631Z,2.77
2018-08-10T18:06:37.203Z,3.03
2018-08-10T18:09:08.091Z,2.27
2018-08-10T18:11:37.089Z,1.60
2018-08-10T18:14:06.611Z,1.73
2018-08-10T18:16:35.129Z,2.10
2018-08-10T18:19:03.859Z,5.53
2018-08-10T18:21:32.765Z,2.73
2018-08-10T18:24:01.477Z,1.73
2018-08-10T18:26:30.248Z,2.77
2018-08-10T18:28:58.813Z,3.60
2018-08-10T18:31:27.672Z,4.23
2018-08-10T18:33:57.411Z,2.10
2018-08-10T18:36:25.853Z,2.87
2018-08-10T18:38:54.669Z,6.23
2018-08-10T18:41:23.500Z,3.47
2018-08-10T18:43:52.186Z,2.70
2018-08-10T18:46:20.691Z,6.93
2018-08-10T18:48:49.584Z,1.53
2018-08-10T18:51:18.050Z,2.20
2018-08-10T18:53:46.717Z,3.80
2018-08-10T18:56:16.644Z,3.43
2018-08-10T18:58:45.559Z,9.93
2018-08-10T19:01:14.862Z,2.00
2018-08-10T19:03:44.755Z,3.37
2018-08-10T19:06:13.783Z,2.03
2018-08-10T19:08:42.309Z,1.70
2018-08-10T19:11:11.151Z,2.83
2018-08-10T19:13:39.898Z,3.40
2018-08-10T19:16:08.785Z,3.37
2018-08-10T19:18:43.005Z,3.03
2018-08-10T19:24:14.238Z,3.43
2018-08-10T19:26:43.043Z,3.10
2018-08-10T19:29:12.789Z,2.13
2018-08-10T19:31:42.209Z,3.57
2018-08-10T19:34:10.817Z,2.17
2018-08-10T19:36:39.305Z,4.53
2018-08-10T19:39:09.409Z,2.73
2018-08-10T19:41:38.405Z,3.97
2018-08-10T19:44:06.977Z,4.00
2018-08-10T19:46:35.481Z,2.03
2018-08-10T19:49:04.024Z,3.10
2018-08-10T19:51:32.883Z,2.30
2018-08-10T19:54:01.554Z,2.90
2018-08-10T19:56:30.168Z,2.43
2018-08-10T19:58:58.840Z,3.27
2018-08-10T20:02:04.709Z,2.67
2018-08-10T20:04:33.216Z,5.47
2018-08-10T20:07:01.969Z,2.50
2018-08-10T20:09:30.477Z,2.53
2018-08-10T20:11:59.325Z,4.23
2018-08-10T20:14:28.249Z,2.03
2018-08-10T20:16:56.876Z,3.37
2018-08-10T20:19:25.502Z,2.50
2018-08-10T20:21:54.064Z,3.83
2018-08-10T20:24:22.949Z,7.77
2018-08-10T20:26:51.429Z,2.33
2018-08-10T20:29:23.414Z,2.83
2018-08-10T20:31:55.120Z,3.67
2018-08-10T20:34:23.640Z,7.47
2018-08-10T20:36:52.281Z,3.73
2018-08-10T20:39:20.764Z,3.93
2018-08-10T20:41:49.464Z,4.03
2018-08-10T20:44:17.995Z,4.50
2018-08-10T20:46:46.472Z,3.00
2018-08-10T20:49:14.955Z,3.77
2018-08-10T20:51:43.482Z,6.27
2018-08-10T20:54:11.965Z,5.67
2018-08-10T20:56:40.405Z,5.07
2018-08-10T20:59:08.918Z,4.67
2018-08-10T21:01:37.422Z,4.57
2018-08-10T21:04:06.059Z,2.90
2018-08-10T21:06:35.587Z,5.07
2018-08-10T21:09:06.648Z,5.83
2018-08-10T21:11:35.304Z,6.60
2018-08-10T21:14:03.904Z,4.40
2018-08-10T21:16:32.439Z,5.03
2018-08-10T21:19:01.136Z,3.87
2018-08-10T21:21:29.854Z,4.03
2018-08-10T21:23:58.330Z,6.40
2018-08-10T21:26:26.829Z,4.90
2018-08-10T21:28:55.300Z,4.70
2018-08-10T21:31:23.837Z,3.90
2018-08-10T21:33:52.470Z,4.07
2018-08-10T21:36:21.157Z,2.63
2018-08-10T21:38:49.627Z,4.97
2018-08-10T21:41:18.135Z,6.87
2018-08-10T21:43:46.602Z,5.23
2018-08-10T21:46:15.191Z,4.07
2018-08-10T21:48:43.617Z,4.93
2018-08-10T21:51:12.059Z,7.47
2018-08-10T21:53:40.675Z,5.20
2018-08-10T21:56:09.159Z,6.90
2018-08-10T21:58:38.741Z,10.93
2018-08-10T22:01:07.456Z,7.00
2018-08-10T22:03:37.256Z,10.97
2018-08-10T22:06:07.537Z,6.50
2018-08-10T22:08:38.919Z,6.27
2018-08-10T22:11:07.541Z,4.77
2018-08-10T22:13:41.445Z,5.93
2018-08-10T22:16:15.860Z,3.60
2018-08-10T22:18:50.006Z,2.80
2018-08-10T22:21:25.714Z,3.30
2018-08-10T22:23:57.163Z,4.00
2018-08-10T22:26:28.340Z,4.60
2018-08-10T22:28:57.484Z,1.97
2018-08-10T22:31:26.902Z,2.03
2018-08-10T22:33:58.558Z,2.30
2018-08-10T22:36:37.071Z,2.00
2018-08-10T22:39:10.566Z,1.97
2018-08-10T22:41:43.639Z,1.90
2018-08-10T22:44:13.391Z,2.20
2018-08-10T22:46:42.865Z,3.10
2018-08-10T22:49:13.449Z,4.67
2018-08-10T22:51:47.614Z,2.60
2018-08-10T22:54:17.221Z,2.40
2018-08-10T22:56:46.793Z,3.20
2018-08-10T22:59:19.473Z,1.63
2018-08-10T23:01:48.774Z,1.73
2018-08-10T23:04:20.902Z,1.60
2018-08-10T23:06:56.046Z,2.23
2018-08-10T23:09:26.620Z,1.60
2018-08-10T23:12:00.686Z,1.53
2018-08-10T23:14:29.883Z,1.33
2018-08-10T23:16:58.420Z,3.63
2018-08-10T23:19:27.053Z,3.93
2018-08-10T23:22:06.266Z,2.50
2018-08-10T23:24:45.001Z,3.33
2018-08-10T23:27:24.753Z,1.77
2018-08-10T23:29:53.139Z,1.50
2018-08-10T23:32:22.025Z,1.73
2018-08-10T23:34:59.150Z,1.87
2018-08-10T23:37:33.928Z,2.30
2018-08-10T23:40:12.237Z,1.87
2018-08-10T23:42:41.894Z,2.20
2018-08-10T23:45:11.855Z,2.63
2018-08-10T23:47:41.992Z,2.10
2018-08-10T23:50:13.871Z,4.03
2018-08-10T23:53:00.483Z,5.10
2018-08-10T23:55:32.283Z,4.57
2018-08-10T23:58:12.698Z,4.40
